createdAt,value
2022-08-22T00:00:28.311Z,99039.78
2022-08-22T00:03:00.666Z,99019.47
2022-08-22T00:03:04.492Z,99027.16
2022-08-22T00:03:08.204Z,99041.50
2022-08-22T00:03:10.286Z,99039.09
2022-08-22T00:05:57.589Z,99034.56
2022-08-22T00:08:31.144Z,99040.31
2022-08-22T00:11:07.203Z,99036.31
2022-08-22T00:13:43.178Z,99037.81
2022-08-22T00:16:16.385Z,99034.66
2022-08-22T00:18:50.230Z,99038.88
2022-08-22T00:21:23.164Z,99038.69
2022-08-22T00:23:55.150Z,99043.13
2022-08-22T00:26:34.108Z,99034.94
2022-08-22T00:29:03.532Z,99037.56
2022-08-22T00:31:35.242Z,99035.09
2022-08-22T00:34:06.846Z,99036.13
2022-08-22T00:36:39.946Z,99043.44
2022-08-22T00:39:18.795Z,99039.78
2022-08-22T00:42:06.654Z,99046.75
2022-08-22T00:45:08.052Z,99042.31
2022-08-22T00:47:51.346Z,99048.47
2022-08-22T00:50:39.771Z,99047.22
2022-08-22T00:53:34.744Z,99043.59
2022-08-22T00:56:20.633Z,99045.09
2022-08-22T00:59:23.220Z,99034.41
2022-08-22T01:01:55.981Z,99039.41
2022-08-22T01:04:44.570Z,99044.09
2022-08-22T01:07:23.917Z,99043.97
2022-08-22T01:10:12.721Z,99044.22
2022-08-22T01:12:53.341Z,99044.56
2022-08-22T01:15:24.257Z,99040.91
2022-08-22T01:18:23.017Z,99041.63
2022-08-22T01:21:28.379Z,99038.09
2022-08-22T01:24:33.946Z,99034.91
2022-08-22T01:27:42.054Z,99032.41
2022-08-22T01:30:23.435Z,99031.50
2022-08-22T01:33:31.778Z,99024.25
2022-08-22T01:36:26.546Z,99025.72
2022-08-22T01:39:10.324Z,99015.03
2022-08-22T01:42:18.547Z,99024.03
2022-08-22T01:45:03.697Z,99019.69
2022-08-22T01:47:37.849Z,99015.03
2022-08-22T01:50:17.147Z,99020.97
2022-08-22T01:52:48.758Z,99016.63
2022-08-22T01:55:25.857Z,99021.50
2022-08-22T01:57:56.776Z,99016.84
2022-08-22T02:00:35.165Z,99016.75
2022-08-22T02:03:17.445Z,99024.03
2022-08-22T02:05:52.799Z,99018.00
2022-08-22T02:08:30.059Z,99017.09
2022-08-22T02:11:06.175Z,99018.47
2022-08-22T02:13:56.833Z,99018.81
2022-08-22T02:16:44.417Z,99021.41
2022-08-22T02:19:25.719Z,99021.41
2022-08-22T02:21:59.832Z,99025.50
2022-08-22T02:24:47.602Z,99021.38
2022-08-22T02:27:23.798Z,99023.53
2022-08-22T02:30:01.871Z,99021.50
2022-08-22T02:32:35.972Z,99026.03
2022-08-22T02:35:08.853Z,99011.81
2022-08-22T02:37:39.921Z,99004.78
2022-08-22T02:40:14.890Z,99007.38
2022-08-22T02:42:48.210Z,99010.88
2022-08-22T02:45:30.920Z,99006.22
2022-08-22T02:48:04.366Z,99002.25
2022-08-22T02:50:40.517Z,99012.25
2022-08-22T02:53:20.074Z,99013.72
2022-08-22T02:55:56.305Z,99014.06
2022-08-22T02:58:37.218Z,99010.09
2022-08-22T03:01:36.660Z,99011.56
2022-08-22T03:04:23.355Z,99018.47
2022-08-22T03:07:07.826Z,99014.47
2022-08-22T03:09:39.028Z,99016.78
2022-08-22T03:12:15.632Z,99013.91
2022-08-22T03:14:47.268Z,99014.91
2022-08-22T03:17:18.882Z,99014.81
2022-08-22T03:19:52.753Z,99013.88
2022-08-22T03:22:25.265Z,99015.00
2022-08-22T03:24:56.600Z,99013.44
2022-08-22T03:27:32.644Z,99016.16
2022-08-22T03:30:04.092Z,99006.72
2022-08-22T03:32:53.761Z,99013.63
2022-08-22T03:35:30.316Z,99010.09
2022-08-22T03:38:14.100Z,99002.72
2022-08-22T03:41:02.672Z,99006.91
2022-08-22T03:44:08.980Z,99002.59
2022-08-22T03:47:09.299Z,99006.66
2022-08-22T03:50:05.482Z,99010.41
2022-08-22T03:53:03.306Z,99020.38
2022-08-22T03:55:43.537Z,99018.31
2022-08-22T03:58:48.790Z,99014.78
2022-08-22T04:01:49.987Z,99017.38
2022-08-22T04:04:40.879Z,99016.13
2022-08-22T04:07:42.721Z,99013.72
2022-08-22T04:10:38.345Z,99019.19
2022-08-22T04:13:27.670Z,99019.50
2022-08-22T04:16:28.947Z,99022.13
2022-08-22T04:19:26.630Z,99027.88
2022-08-22T04:22:16.481Z,99020.53
2022-08-22T04:24:54.207Z,99027.09
2022-08-22T04:27:27.353Z,99024.69
2022-08-22T04:29:59.593Z,99023.56
2022-08-22T04:32:31.673Z,99025.38
2022-08-22T04:35:05.541Z,99036.72
2022-08-22T04:37:41.717Z,99034.78
2022-08-22T04:40:16.744Z,99039.13
2022-08-22T04:42:49.474Z,99042.16
2022-08-22T04:45:19.338Z,99043.75
2022-08-22T04:47:54.215Z,99046.97
2022-08-22T04:50:25.563Z,99046.16
2022-08-22T04:53:01.816Z,99052.53
2022-08-22T04:55:33.994Z,99056.19
2022-08-22T04:58:11.833Z,99053.13
2022-08-22T05:00:49.291Z,99045.91
2022-08-22T05:03:22.046Z,99050.34
2022-08-22T05:05:51.298Z,99055.25
2022-08-22T05:08:24.143Z,99057.78
2022-08-22T05:10:52.057Z,99050.66
2022-08-22T05:13:24.534Z,99056.69
2022-08-22T05:15:56.913Z,99056.47
2022-08-22T05:18:29.578Z,99064.44
2022-08-22T05:21:00.964Z,99052.06
2022-08-22T05:23:29.713Z,99045.97
2022-08-22T05:26:01.214Z,99050.53
2022-08-22T05:28:33.115Z,99058.94
2022-08-22T05:31:02.888Z,99066.56
2022-08-22T05:33:35.161Z,99066.38
2022-08-22T05:36:07.742Z,99062.63
2022-08-22T05:38:38.667Z,99061.38
2022-08-22T05:41:07.781Z,99063.25
2022-08-22T05:43:39.284Z,99058.81
2022-08-22T05:46:09.282Z,99054.03
2022-08-22T05:48:42.552Z,99060.97
2022-08-22T05:51:16.682Z,99065.19
2022-08-22T05:53:48.345Z,99062.81
2022-08-22T05:56:22.587Z,99068.59
2022-08-22T05:58:56.135Z,99063.13
2022-08-22T06:01:32.009Z,99067.09
2022-08-22T06:04:08.013Z,99067.16
2022-08-22T06:06:39.991Z,99069.06
2022-08-22T06:09:13.362Z,99074.13
2022-08-22T06:11:51.936Z,99076.50
2022-08-22T06:14:28.803Z,99068.69
2022-08-22T06:17:03.423Z,99060.88
2022-08-22T06:19:35.556Z,99074.59
2022-08-22T06:22:04.943Z,99072.66
2022-08-22T06:24:35.485Z,99069.56
2022-08-22T06:27:06.189Z,99066.03
2022-08-22T06:29:37.469Z,99070.34
2022-08-22T06:32:12.049Z,99073.09
2022-08-22T06:34:42.634Z,99061.56
2022-08-22T06:37:13.211Z,99064.25
2022-08-22T06:39:44.000Z,99065.75
2022-08-22T06:42:16.482Z,99070.34
2022-08-22T06:44:46.758Z,99068.72
2022-08-22T06:47:17.426Z,99066.25
2022-08-22T06:49:46.158Z,99064.19
2022-08-22T06:52:18.057Z,99066.47
2022-08-22T06:54:48.195Z,99069.53
2022-08-22T06:57:27.205Z,99065.13
2022-08-22T06:59:55.337Z,99072.41
2022-08-22T07:02:29.641Z,99068.38
2022-08-22T07:04:57.724Z,99077.31
2022-08-22T07:07:27.592Z,99072.47
2022-08-22T07:09:56.098Z,99073.66
2022-08-22T07:12:29.097Z,99078.13
2022-08-22T07:15:00.560Z,99075.47
2022-08-22T07:17:30.098Z,99074.09
2022-08-22T07:20:11.340Z,99071.88
2022-08-22T07:22:38.156Z,99074.78
2022-08-22T07:25:09.527Z,99080.47
2022-08-22T07:27:54.091Z,99082.19
2022-08-22T07:30:27.485Z,99086.13
2022-08-22T07:33:17.765Z,99084.78
2022-08-22T07:35:55.615Z,99095.63
2022-08-22T07:38:31.554Z,99097.75
2022-08-22T07:41:05.181Z,99099.56
2022-08-22T07:43:37.913Z,99104.53
2022-08-22T07:46:18.873Z,99109.16
2022-08-22T07:49:08.005Z,99102.34
2022-08-22T07:51:46.208Z,99092.84
2022-08-22T07:54:16.236Z,99094.16
2022-08-22T07:56:47.559Z,99102.13
2022-08-22T07:59:17.745Z,99099.84
2022-08-22T08:01:46.598Z,99093.25
2022-08-22T08:04:19.503Z,99094.06
2022-08-22T08:06:50.848Z,99096.06
2022-08-22T08:09:19.621Z,99094.91
2022-08-22T08:11:49.110Z,99094.53
2022-08-22T08:14:16.389Z,99100.84
2022-08-22T08:16:56.226Z,99093.34
2022-08-22T08:19:23.597Z,99082.22
2022-08-22T08:21:55.313Z,99083.41
2022-08-22T08:24:26.487Z,99082.53
2022-08-22T08:26:58.058Z,99082.88
2022-08-22T08:29:24.824Z,99091.41
2022-08-22T08:31:51.644Z,99098.44
2022-08-22T08:34:22.319Z,99093.22
2022-08-22T08:36:53.936Z,99090.09
2022-08-22T08:39:25.277Z,99098.16
2022-08-22T08:42:32.407Z,99090.19
2022-08-22T08:45:25.947Z,99098.91
2022-08-22T08:48:16.244Z,99097.63
2022-08-22T08:50:59.041Z,99095.75
2022-08-22T08:54:06.954Z,99103.25
2022-08-22T08:56:47.337Z,99099.81
2022-08-22T08:59:31.531Z,99094.72
2022-08-22T09:05:34.869Z,99099.28
2022-08-22T09:08:35.232Z,99100.00
2022-08-22T09:11:27.030Z,99096.19
2022-08-22T09:14:08.558Z,99093.13
2022-08-22T09:16:51.888Z,99087.53
2022-08-22T09:19:55.017Z,99087.88
2022-08-22T09:23:10.088Z,99087.56
2022-08-22T09:25:44.303Z,99083.78
2022-08-22T09:28:18.521Z,99077.91
2022-08-22T09:31:02.213Z,99073.50
2022-08-22T09:33:54.113Z,99077.50
2022-08-22T09:36:23.668Z,99074.13
2022-08-22T09:38:56.572Z,99074.91
2022-08-22T09:41:34.815Z,99063.25
2022-08-22T09:44:14.374Z,99059.47
2022-08-22T09:46:52.289Z,99060.72
2022-08-22T09:49:28.148Z,99049.50
2022-08-22T09:52:15.279Z,99055.59
2022-08-22T09:54:46.057Z,99055.63
2022-08-22T09:57:24.223Z,99050.34
2022-08-22T10:00:13.253Z,99051.16
2022-08-22T10:02:46.280Z,99047.63
2022-08-22T10:05:41.108Z,99043.84
2022-08-22T10:08:26.379Z,99041.41
2022-08-22T10:11:14.241Z,99045.63
2022-08-22T10:13:57.248Z,99029.19
2022-08-22T10:16:41.717Z,99025.56
2022-08-22T10:19:18.045Z,99025.34
2022-08-22T10:22:30.199Z,99025.19
2022-08-22T10:25:18.436Z,99019.41
2022-08-22T10:27:55.969Z,99018.75
2022-08-22T10:30:27.023Z,99014.00
2022-08-22T10:33:03.278Z,99016.66
2022-08-22T10:35:37.369Z,99009.28
2022-08-22T10:38:10.928Z,99008.94
2022-08-22T10:40:46.679Z,99010.69
2022-08-22T10:43:21.212Z,99008.44
2022-08-22T10:46:03.532Z,99013.84
2022-08-22T10:48:44.767Z,99004.75
2022-08-22T10:51:23.528Z,98998.59
2022-08-22T10:54:22.656Z,98995.34
2022-08-22T10:56:56.565Z,98995.38
2022-08-22T10:59:37.570Z,98994.84
2022-08-22T11:02:29.808Z,98997.22
2022-08-22T11:05:39.687Z,99003.00
2022-08-22T11:08:34.932Z,99001.31
2022-08-22T11:11:08.542Z,98996.00
2022-08-22T11:13:43.400Z,98999.13
2022-08-22T11:16:36.816Z,98990.66
2022-08-22T11:19:15.634Z,98994.81
2022-08-22T11:21:55.920Z,98988.75
2022-08-22T11:25:04.441Z,98994.00
2022-08-22T11:27:42.538Z,98980.50
2022-08-22T11:30:18.247Z,98983.56
2022-08-22T11:33:10.925Z,98981.59
2022-08-22T11:35:45.838Z,98981.38
2022-08-22T11:38:32.431Z,98983.84
2022-08-22T11:41:07.741Z,98976.31
2022-08-22T11:43:47.280Z,98968.47
2022-08-22T11:46:19.965Z,98972.78
2022-08-22T11:49:03.850Z,98967.59
2022-08-22T11:51:53.321Z,98970.84
2022-08-22T11:54:32.032Z,98957.34
2022-08-22T11:57:06.563Z,98973.78
2022-08-22T11:59:54.009Z,98974.06
2022-08-22T12:02:30.977Z,98967.91
2022-08-22T12:05:03.875Z,98961.41
2022-08-22T12:07:33.158Z,98953.81
2022-08-22T12:10:04.594Z,98963.91
2022-08-22T12:12:44.140Z,98964.84
2022-08-22T12:15:21.353Z,98956.78
2022-08-22T12:18:29.092Z,98953.97
2022-08-22T12:21:13.210Z,98955.69
2022-08-22T12:24:18.981Z,98951.91
2022-08-22T12:27:06.502Z,98949.28
2022-08-22T12:29:44.991Z,98942.81
2022-08-22T12:32:38.886Z,98940.72
2022-08-22T12:35:27.084Z,98943.66
2022-08-22T12:38:29.057Z,98939.59
2022-08-22T12:41:10.146Z,98933.59
2022-08-22T12:43:49.522Z,98930.28
2022-08-22T12:46:23.903Z,98925.34
2022-08-22T12:49:12.171Z,98924.25
2022-08-22T12:51:59.860Z,98918.06
2022-08-22T12:55:02.289Z,98921.53
2022-08-22T12:57:40.204Z,98914.25
2022-08-22T13:00:26.741Z,98915.13
2022-08-22T13:02:55.029Z,98911.81
2022-08-22T13:05:24.723Z,98907.09
2022-08-22T13:07:57.187Z,98916.97
2022-08-22T13:10:37.989Z,98904.16
2022-08-22T13:13:11.917Z,98901.16
2022-08-22T13:15:46.419Z,98899.28
2022-08-22T13:18:31.704Z,98899.09
2022-08-22T13:21:03.626Z,98900.88
2022-08-22T13:23:34.390Z,98896.38
2022-08-22T13:26:10.930Z,98890.50
2022-08-22T13:28:44.252Z,98888.13
2022-08-22T13:31:21.642Z,98888.16
2022-08-22T13:33:48.851Z,98889.94
2022-08-22T13:36:18.561Z,98883.03
2022-08-22T13:38:52.953Z,98880.19
2022-08-22T13:41:24.144Z,98883.75
2022-08-22T13:44:17.739Z,98877.47
2022-08-22T13:47:12.905Z,98874.53
2022-08-22T13:49:36.125Z,98879.97
2022-08-22T13:52:29.027Z,98878.38
2022-08-22T13:55:01.457Z,98876.63
2022-08-22T13:57:34.363Z,98862.97
2022-08-22T14:00:09.530Z,98866.13
2022-08-22T14:02:56.533Z,98864.06
2022-08-22T14:05:29.777Z,98865.22
2022-08-22T14:08:13.002Z,98865.94
2022-08-22T14:10:45.770Z,98860.22
2022-08-22T14:13:36.746Z,98856.94
2022-08-22T14:16:10.374Z,98856.63
2022-08-22T14:18:46.087Z,98850.50
2022-08-22T14:21:27.389Z,98857.13
2022-08-22T14:23:58.375Z,98862.72
2022-08-22T14:26:32.982Z,98860.00
2022-08-22T14:29:07.865Z,98857.00
2022-08-22T14:31:35.459Z,98857.66
2022-08-22T14:34:07.135Z,98861.47
2022-08-22T14:36:42.106Z,98859.38
2022-08-22T14:39:16.097Z,98855.66
2022-08-22T14:41:56.272Z,98857.25
2022-08-22T14:44:30.242Z,98858.00
2022-08-22T14:47:02.124Z,98844.06
2022-08-22T14:49:47.502Z,98849.75
2022-08-22T14:52:32.921Z,98841.81
2022-08-22T14:55:17.958Z,98842.47
2022-08-22T14:57:50.407Z,98846.69
2022-08-22T15:00:43.673Z,98838.47
2022-08-22T15:03:20.878Z,98842.44
2022-08-22T15:05:52.537Z,98835.84
2022-08-22T15:08:29.748Z,98830.34
2022-08-22T15:11:22.570Z,98827.03
2022-08-22T15:13:55.259Z,98828.94
2022-08-22T15:16:29.361Z,98829.28
2022-08-22T15:18:55.922Z,98833.03
2022-08-22T15:21:26.429Z,98827.44
2022-08-22T15:23:55.506Z,98825.25
2022-08-22T15:26:28.497Z,98820.13
2022-08-22T15:29:01.859Z,98818.94
2022-08-22T15:31:31.280Z,98820.50
2022-08-22T15:34:07.500Z,98822.59
2022-08-22T15:37:26.047Z,98828.44
2022-08-22T15:40:00.849Z,98826.97
2022-08-22T15:42:33.151Z,98816.41
2022-08-22T15:45:00.774Z,98821.22
2022-08-22T15:47:36.203Z,98818.28
2022-08-22T15:50:08.179Z,98814.59
2022-08-22T15:53:09.100Z,98815.75
2022-08-22T15:55:37.026Z,98813.91
2022-08-22T15:58:09.312Z,98804.06
2022-08-22T16:00:45.081Z,98804.34
2022-08-22T16:03:23.549Z,98806.97
2022-08-22T16:05:55.423Z,98800.56
2022-08-22T16:08:29.635Z,98799.09
2022-08-22T16:11:21.607Z,98797.59
2022-08-22T16:14:21.376Z,98799.78
2022-08-22T16:16:56.387Z,98798.47
2022-08-22T16:19:24.591Z,98797.41
2022-08-22T16:22:18.301Z,98785.91
2022-08-22T16:25:01.192Z,98788.25
2022-08-22T16:27:28.559Z,98795.47
2022-08-22T16:30:14.708Z,98792.09
2022-08-22T16:32:55.237Z,98796.72
2022-08-22T16:35:59.401Z,98785.50
2022-08-22T16:38:36.627Z,98781.44
2022-08-22T16:41:03.933Z,98785.41
2022-08-22T16:43:30.893Z,98790.31
2022-08-22T16:45:59.967Z,98783.25
2022-08-22T16:48:33.717Z,98782.28
2022-08-22T16:51:17.968Z,98795.41
2022-08-22T16:54:21.238Z,98786.50
2022-08-22T16:57:01.660Z,98785.56
2022-08-22T16:59:41.782Z,98788.31
2022-08-22T17:02:42.320Z,98793.44
2022-08-22T17:05:22.397Z,98803.78
2022-08-22T17:08:02.770Z,98796.13
2022-08-22T17:10:46.031Z,98793.25
2022-08-22T17:13:27.416Z,98787.31
2022-08-22T17:16:07.761Z,98794.66
2022-08-22T17:18:47.369Z,98789.41
2022-08-22T17:21:25.573Z,98798.00
2022-08-22T17:24:02.811Z,98800.03
2022-08-22T17:26:44.165Z,98793.44
2022-08-22T17:29:19.864Z,98798.25
2022-08-22T17:31:53.904Z,98803.47
2022-08-22T17:34:37.903Z,98810.94
2022-08-22T17:37:14.821Z,98805.25
2022-08-22T17:40:21.370Z,98804.47
2022-08-22T17:43:00.324Z,98812.16
2022-08-22T17:45:38.161Z,98809.00
2022-08-22T17:48:11.130Z,98806.94
2022-08-22T17:50:45.250Z,98823.22
2022-08-22T17:53:22.980Z,98828.69
2022-08-22T17:56:00.085Z,98824.38
2022-08-22T17:58:37.745Z,98827.09
2022-08-22T18:01:15.104Z,98826.41
2022-08-22T18:03:49.956Z,98826.44
2022-08-22T18:06:21.477Z,98839.13
2022-08-22T18:11:45.044Z,98834.09
2022-08-22T18:14:24.260Z,98836.72
2022-08-22T18:16:53.645Z,98835.84
2022-08-22T18:19:38.374Z,98834.22
2022-08-22T18:22:10.845Z,98837.19
2022-08-22T18:24:45.952Z,98850.09
2022-08-22T18:27:34.981Z,98849.44
2022-08-22T18:30:07.915Z,98846.06
2022-08-22T18:32:41.150Z,98844.97
2022-08-22T18:35:16.901Z,98853.53
2022-08-22T18:37:53.841Z,98850.84
2022-08-22T18:40:28.926Z,98855.34
2022-08-22T18:43:06.717Z,98857.47
2022-08-22T18:46:10.248Z,98856.88
2022-08-22T18:48:54.269Z,98858.63
2022-08-22T18:51:28.658Z,98866.25
2022-08-22T18:54:18.891Z,98857.59
2022-08-22T18:56:50.891Z,98866.38
2022-08-22T18:59:42.082Z,98863.34
2022-08-22T19:02:26.210Z,98860.63
2022-08-22T19:05:15.275Z,98863.56
2022-08-22T19:08:07.226Z,98868.44
2022-08-22T19:10:47.899Z,98861.00
2022-08-22T19:13:41.718Z,98866.28
2022-08-22T19:16:26.055Z,98877.41
2022-08-22T19:18:54.932Z,98880.28
2022-08-22T19:21:26.074Z,98886.72
2022-08-22T19:23:54.427Z,98886.00
2022-08-22T19:26:35.050Z,98883.69
2022-08-22T19:29:10.088Z,98890.13
2022-08-22T19:31:50.365Z,98891.41
2022-08-22T19:34:36.599Z,98893.44
2022-08-22T19:37:32.048Z,98897.78
2022-08-22T19:40:06.663Z,98896.69
2022-08-22T19:42:41.256Z,98901.44
2022-08-22T19:45:19.663Z,98902.28
2022-08-22T19:47:57.191Z,98900.72
2022-08-22T19:50:31.081Z,98892.81
2022-08-22T19:53:10.816Z,98897.16
2022-08-22T19:55:54.098Z,98899.13
2022-08-22T19:58:31.083Z,98891.59
2022-08-22T20:01:06.068Z,98893.97
2022-08-22T20:03:44.536Z,98899.50
2022-08-22T20:06:42.584Z,98901.03
2022-08-22T20:09:20.579Z,98904.59
2022-08-22T20:12:02.081Z,98901.03
2022-08-22T20:14:31.969Z,98897.88
2022-08-22T20:17:06.208Z,98897.47
2022-08-22T20:22:40.828Z,98905.03
2022-08-22T20:25:20.715Z,98906.25
2022-08-22T20:28:02.445Z,98911.41
2022-08-22T20:30:37.040Z,98905.13
2022-08-22T20:33:09.201Z,98908.69
2022-08-22T20:35:41.120Z,98913.06
2022-08-22T20:38:10.830Z,98919.84
2022-08-22T20:40:56.632Z,98920.28
2022-08-22T20:43:32.280Z,98920.28
2022-08-22T20:46:12.559Z,98917.50
2022-08-22T20:48:43.652Z,98914.78
2022-08-22T20:51:15.268Z,98916.38
2022-08-22T20:53:42.167Z,98924.31
2022-08-22T20:56:08.755Z,98927.88
2022-08-22T20:58:38.209Z,98916.00
2022-08-22T21:01:09.970Z,98916.00
2022-08-22T21:03:41.015Z,98908.50
2022-08-22T21:06:13.091Z,98916.84
2022-08-22T21:08:40.734Z,98917.25
2022-08-22T21:11:08.560Z,98914.09
2022-08-22T21:13:36.601Z,98921.28
2022-08-22T21:16:14.090Z,98923.66
2022-08-22T21:18:42.750Z,98930.78
2022-08-22T21:21:18.165Z,98934.34
2022-08-22T21:23:47.575Z,98935.16
2022-08-22T21:26:22.437Z,98938.31
2022-08-22T21:28:56.856Z,98933.63
2022-08-22T21:31:27.912Z,98932.03
2022-08-22T21:33:55.708Z,98937.59
2022-08-22T21:36:25.623Z,98932.09
2022-08-22T21:38:55.761Z,98929.72
2022-08-22T21:41:32.209Z,98937.25
2022-08-22T21:44:17.355Z,98939.63
2022-08-22T21:46:45.271Z,98934.91
2022-08-22T21:49:20.773Z,98936.13
2022-08-22T21:51:47.594Z,98935.72
2022-08-22T21:54:34.228Z,98938.47
2022-08-22T21:57:18.393Z,98946.03
2022-08-22T21:59:51.625Z,98936.97
2022-08-22T22:02:34.185Z,98944.91
2022-08-22T22:05:08.402Z,98931.91
2022-08-22T22:07:36.381Z,98937.06
2022-08-22T22:10:03.475Z,98937.50
2022-08-22T22:12:31.442Z,98948.97
2022-08-22T22:14:58.026Z,98947.03
2022-08-22T22:17:24.568Z,98952.16
2022-08-22T22:19:52.496Z,98951.75
2022-08-22T22:22:19.151Z,98958.91
2022-08-22T22:24:45.685Z,98955.34
2022-08-22T22:27:16.764Z,98959.31
2022-08-22T22:29:43.807Z,98955.00
2022-08-22T22:32:10.374Z,98955.78
2022-08-22T22:34:36.984Z,98959.75
2022-08-22T22:37:06.097Z,98962.50
2022-08-22T22:39:34.327Z,98961.72
2022-08-22T22:42:00.922Z,98968.03
2022-08-22T22:44:27.495Z,98975.16
2022-08-22T22:46:56.650Z,98973.56
2022-08-22T22:49:23.538Z,98970.41
2022-08-22T22:51:50.121Z,98972.00
2022-08-22T22:54:18.105Z,98969.63
2022-08-22T22:56:48.011Z,98975.56
2022-08-22T22:59:14.972Z,98969.25
2022-08-22T23:02:00.748Z,98985.06
2022-08-22T23:04:27.989Z,98975.56
2022-08-22T23:06:54.663Z,98980.75
2022-08-22T23:09:23.011Z,98975.22
2022-08-22T23:11:59.183Z,98983.09
2022-08-22T23:14:25.808Z,98980.72
2022-08-22T23:16:52.422Z,98983.47
2022-08-22T23:19:18.975Z,98982.72
2022-08-22T23:21:47.038Z,98985.88
2022-08-22T23:24:14.339Z,98991.00
2022-08-22T23:26:43.397Z,98987.47
2022-08-22T23:29:10.969Z,98985.88
2022-08-22T23:31:40.047Z,98989.44
2022-08-22T23:34:08.940Z,98996.53
2022-08-22T23:36:36.324Z,98998.50
2022-08-22T23:39:04.137Z,98993.41
2022-08-22T23:41:30.677Z,99000.50
2022-08-22T23:43:58.689Z,98998.56
2022-08-22T23:46:27.172Z,99004.06
2022-08-22T23:48:54.100Z,99004.06
2022-08-22T23:51:23.959Z,99002.91
2022-08-22T23:53:51.681Z,99016.31
2022-08-22T23:56:22.096Z,99010.00
2022-08-22T23:58:49.422Z,99018.28
